Time;durP1;ratioP1;P1;durP2;ratioP2;P2;SDS_P1;SDS_P2;PMS_P1;PMS_P2;Temp;Humidity;BMP_temperature;BMP_pressure;BME280_temperature;BME280_humidity;BME280_pressure;Samples;Min_cycle;Max_cycle;Signal;HPM_P1;HPM_P2
2022/05/07 00:01:38;;;;;;;44.05;16.63;;;;;;;12.41;78.23;102256.84;5074292;28;20480;-72
2022/05/07 00:04:03;;;;;;;30.42;17.77;;;;;;;12.33;78.48;102256.91;5074378;28;20020;-73
2022/05/07 00:06:29;;;;;;;36.80;18.23;;;;;;;12.34;78.55;102258.66;5055085;28;20056;-72
2022/05/07 00:08:54;;;;;;;32.35;17.95;;;;;;;12.28;79.04;102249.97;5073409;28;20060;-72
2022/05/07 00:11:20;;;;;;;42.22;18.50;;;;;;;12.21;79.53;102253.53;5074468;28;20017;-72
2022/05/07 00:13:47;;;;;;;37.13;18.30;;;;;;;12.12;79.92;102257.06;5073298;28;20104;-73
2022/05/07 00:18:56;;;;;;;31.70;18.85;;;;;;;12.03;80.82;102247.53;5074226;28;20038;-73
2022/05/07 00:21:21;;;;;;;37.78;19.20;;;;;;;12.07;80.33;102251.03;5073276;28;20111;-73
2022/05/07 00:23:47;;;;;;;34.78;17.92;;;;;;;12.07;80.46;102246.66;5073836;28;20029;-73
2022/05/07 00:26:12;;;;;;;32.95;19.13;;;;;;;12.01;80.76;102251.94;5073821;28;20060;-72
2022/05/07 00:28:37;;;;;;;30.50;18.85;;;;;;;11.95;80.88;102245.00;5072870;28;20081;-72
2022/05/07 00:31:02;;;;;;;30.40;19.02;;;;;;;11.99;80.90;102247.59;5073875;28;20021;-72
2022/05/07 00:33:28;;;;;;;30.52;18.00;;;;;;;12.03;80.84;102239.69;5072989;28;20020;-73
2022/05/07 00:35:53;;;;;;;26.55;18.88;;;;;;;12.00;80.86;102249.31;5073405;28;20033;-72
2022/05/07 00:38:18;;;;;;;33.08;23.45;;;;;;;11.98;80.72;102238.03;5073920;28;20479;-73
2022/05/07 00:40:43;;;;;;;44.47;30.15;;;;;;;11.89;81.42;102236.31;5072729;28;20027;-72
2022/05/07 00:43:12;;;;;;;42.30;26.65;;;;;;;11.79;81.48;102230.25;5073692;28;20024;-73
2022/05/07 00:45:38;;;;;;;73.00;54.17;;;;;;;11.86;81.15;102233.72;5073243;28;20021;-72
2022/05/07 00:48:03;;;;;;;77.72;59.22;;;;;;;11.82;81.49;102237.22;5072640;28;20032;-72
2022/05/07 00:53:13;;;;;;;65.70;54.25;;;;;;;11.82;81.47;102227.63;5073807;28;20078;-72
2022/05/07 00:55:38;;;;;;;80.40;60.53;;;;;;;11.73;82.18;102233.78;5072249;28;20028;-73
2022/05/07 00:58:03;;;;;;;60.58;43.22;;;;;;;11.70;82.43;102223.34;5073132;28;20052;-72
2022/05/07 01:00:29;;;;;;;51.67;37.75;;;;;;;11.74;82.15;102229.44;5073293;28;20426;-72
2022/05/07 01:02:54;;;;;;;45.17;32.90;;;;;;;11.77;82.33;102228.53;5072443;28;20032;-73
2022/05/07 01:05:19;;;;;;;47.78;33.63;;;;;;;11.77;81.94;102232.03;5073399;28;20021;-72
2022/05/07 01:07:45;;;;;;;44.78;30.33;;;;;;;11.74;81.86;102221.59;5072891;28;20028;-72
2022/05/07 01:10:12;;;;;;;39.97;28.77;;;;;;;11.77;82.26;102225.91;5072298;28;20538;-72
2022/05/07 01:12:38;;;;;;;36.92;25.17;;;;;;;11.78;81.68;102225.06;5072944;28;20074;-72
2022/05/07 01:15:04;;;;;;;37.72;24.33;;;;;;;11.75;81.92;102223.31;5073028;28;20119;-73
2022/05/07 01:17:32;;;;;;;28.35;21.60;;;;;;;11.72;82.29;102225.97;5072311;28;20028;-73
2022/05/07 01:19:58;;;;;;;27.42;20.98;;;;;;;11.69;82.22;102226.84;5072631;28;20465;-72
2022/05/07 01:22:24;;;;;;;29.00;20.20;;;;;;;11.67;82.30;102217.25;5072922;28;20028;-72
2022/05/07 01:24:49;;;;;;;29.42;19.10;;;;;;;11.60;82.75;102221.66;5071960;28;20032;-72
2022/05/07 01:27:15;;;;;;;28.98;19.75;;;;;;;11.55;82.98;102217.38;5072920;28;20031;-73
2022/05/07 01:29:40;;;;;;;33.13;20.85;;;;;;;11.55;83.07;102218.22;5071917;28;20531;-72
2022/05/07 01:32:05;;;;;;;26.92;19.27;;;;;;;11.57;83.27;102206.00;5072871;28;20028;-72
2022/05/07 01:34:31;;;;;;;33.38;20.40;;;;;;;11.60;83.08;102207.72;5072786;28;20025;-72
2022/05/07 01:36:56;;;;;;;28.73;19.08;;;;;;;11.50;83.59;102204.31;5072328;28;20103;-72
2022/05/07 01:39:21;;;;;;;28.48;19.55;;;;;;;11.49;83.57;102203.44;5072960;28;20032;-72
2022/05/07 01:41:47;;;;;;;32.63;19.52;;;;;;;11.46;84.06;102202.59;5072594;28;20025;-72
2022/05/07 01:44:12;;;;;;;31.13;19.73;;;;;;;11.46;84.16;102208.69;5072079;28;20506;-72
2022/05/07 01:49:21;;;;;;;29.92;19.15;;;;;;;11.44;83.91;102199.13;5072803;28;20043;-72
2022/05/07 01:51:46;;;;;;;30.45;19.65;;;;;;;11.43;83.86;102202.59;5071589;28;20036;-72
2022/05/07 01:54:12;;;;;;;27.35;19.30;;;;;;;11.46;83.93;102205.22;5072964;28;20025;-72
2022/05/07 01:56:37;;;;;;;31.70;19.83;;;;;;;11.45;83.83;102199.13;5072211;28;20040;-72
2022/05/07 01:59:02;;;;;;;31.60;20.90;;;;;;;11.45;83.86;102206.97;5071839;28;20036;-72
2022/05/07 02:01:27;;;;;;;28.85;19.30;;;;;;;11.38;84.30;102202.66;5072807;28;20017;-72
2022/05/07 02:03:52;;;;;;;30.83;19.50;;;;;;;11.39;84.15;102199.16;5072401;28;20116;-73
2022/05/07 02:06:18;;;;;;;27.60;17.75;;;;;;;11.39;84.45;102204.38;5071671;28;20044;-72
2022/05/07 02:08:43;;;;;;;29.58;20.33;;;;;;;11.36;84.81;102196.56;5072329;28;20476;-72
2022/05/07 02:11:08;;;;;;;29.40;20.15;;;;;;;11.31;84.82;102192.22;5072604;28;20031;-72
2022/05/07 02:13:34;;;;;;;29.80;20.77;;;;;;;11.36;85.08;102193.94;5071288;28;20025;-72
2022/05/07 02:15:59;;;;;;;29.35;18.80;;;;;;;11.38;84.67;102191.31;5072602;28;20050;-73
2022/05/07 02:18:25;;;;;;;25.30;18.77;;;;;;;11.40;84.74;102189.56;5072666;28;20490;-72
2022/05/07 02:20:50;;;;;;;28.45;19.15;;;;;;;11.36;85.20;102188.72;5071514;28;20043;-72
2022/05/07 02:23:19;;;;;;;26.73;19.45;;;;;;;11.36;85.08;102193.94;5072518;28;20059;-72
2022/05/07 02:25:45;;;;;;;27.35;19.42;;;;;;;11.31;85.58;102190.47;5072110;28;20029;-72
2022/05/07 02:28:11;;;;;;;33.67;18.73;;;;;;;11.29;85.66;102191.38;5071565;28;20074;-72
2022/05/07 02:30:36;;;;;;;40.08;21.80;;;;;;;11.28;85.42;102185.31;5073200;28;20089;-72
2022/05/07 02:33:01;;;;;;;31.60;18.83;;;;;;;11.27;86.11;102191.38;5075438;28;20017;-73
2022/05/07 02:35:26;;;;;;;31.75;19.50;;;;;;;11.20;86.09;102185.31;5076185;28;20029;-72
2022/05/07 02:37:54;;;;;;;26.02;19.25;;;;;;;11.23;86.22;102189.66;5075804;28;20438;-73
2022/05/07 02:40:19;;;;;;;29.10;19.75;;;;;;;11.16;86.78;102180.13;5075282;28;20048;-72
2022/05/07 02:42:44;;;;;;;35.60;20.77;;;;;;;11.16;86.79;102186.22;5075595;28;20431;-72
2022/05/07 02:45:12;;;;;;;37.53;20.67;;;;;;;11.17;86.93;102180.09;5075787;28;20028;-72
2022/05/07 02:47:39;;;;;;;32.90;19.95;;;;;;;11.19;86.89;102178.38;5074716;28;20533;-72
2022/05/07 02:50:06;;;;;;;35.90;19.88;;;;;;;11.21;87.03;102175.75;5075925;28;20035;-72
2022/05/07 02:52:35;;;;;;;34.95;20.67;;;;;;;11.21;87.12;102170.50;5075469;28;20028;-72
2022/05/07 02:55:01;;;;;;;33.65;20.52;;;;;;;11.24;86.93;102176.59;5075057;28;20032;-72
2022/05/07 02:57:27;;;;;;;31.02;19.88;;;;;;;11.18;87.79;102180.97;5075421;28;20036;-72
2022/05/07 02:59:52;;;;;;;37.63;20.52;;;;;;;11.10;87.69;102167.09;5075504;28;20082;-72
2022/05/07 03:02:17;;;;;;;32.72;20.33;;;;;;;11.10;88.22;102174.94;5074937;28;20028;-73
2022/05/07 03:04:43;;;;;;;32.92;21.83;;;;;;;11.10;88.57;102174.94;5075296;28;20024;-72
2022/05/07 03:07:08;;;;;;;33.33;21.10;;;;;;;11.08;88.54;102180.13;5075551;28;20040;-72
2022/05/07 03:09:34;;;;;;;35.33;21.25;;;;;;;11.11;88.59;102177.53;5074337;28;20067;-73
2022/05/07 03:11:59;;;;;;;37.58;22.13;;;;;;;11.12;88.50;102170.59;5075496;28;20036;-72
2022/05/07 03:14:25;;;;;;;35.55;21.30;;;;;;;11.21;88.18;102167.91;5075634;28;20495;-72
2022/05/07 03:16:50;;;;;;;30.65;21.23;;;;;;;11.20;88.33;102158.34;5074422;28;20029;-72
2022/05/07 03:19:16;;;;;;;36.50;21.25;;;;;;;11.22;88.31;102167.06;5075392;28;20031;-72
2022/05/07 03:21:42;;;;;;;34.88;21.85;;;;;;;11.20;88.30;102174.00;5074942;28;20492;-72
2022/05/07 03:24:08;;;;;;;34.72;22.20;;;;;;;11.23;87.78;102168.78;5074396;28;20016;-72
2022/05/07 03:26:33;;;;;;;34.40;22.08;;;;;;;11.23;87.69;102169.63;5074705;28;20086;-72
2022/05/07 03:28:59;;;;;;;33.83;21.30;;;;;;;11.25;87.88;102172.25;5075396;28;20035;-72
2022/05/07 03:31:25;;;;;;;31.92;21.27;;;;;;;11.25;88.24;102172.25;5074364;28;20456;-72
2022/05/07 03:33:50;;;;;;;30.50;22.45;;;;;;;11.21;88.18;102171.38;5074958;28;20142;-72
2022/05/07 03:36:15;;;;;;;33.03;22.27;;;;;;;11.11;89.26;102161.00;5074219;28;20070;-72
2022/05/07 03:38:41;;;;;;;36.05;24.10;;;;;;;11.17;89.30;102176.63;5074718;28;20056;-72
2022/05/07 03:41:07;;;;;;;46.70;27.98;;;;;;;11.13;89.95;102178.41;5074703;28;20031;-73
2022/05/07 03:43:36;;;;;;;46.38;29.30;;;;;;;11.11;90.78;102180.13;5073960;28;20483;-72
2022/05/07 03:46:02;;;;;;;44.17;27.48;;;;;;;11.11;90.35;102180.13;5075111;28;20024;-72
2022/05/07 03:48:29;;;;;;;43.58;25.70;;;;;;;11.11;90.38;102182.75;5074879;28;20017;-72
2022/05/07 03:50:54;;;;;;;46.53;25.40;;;;;;;11.13;89.68;102178.41;5073712;28;20081;-72
2022/05/07 03:53:31;;;;;;;40.67;24.60;;;;;;;11.18;89.15;102181.88;5074976;28;20025;-72
2022/05/07 03:55:58;;;;;;;41.45;23.80;;;;;;;11.19;89.12;102187.94;5074767;28;20043;-72
2022/05/07 03:58:25;;;;;;;40.42;25.15;;;;;;;11.15;89.99;102184.47;5073663;28;20037;-72
2022/05/07 04:00:51;;;;;;;38.50;24.48;;;;;;;11.11;89.98;102189.72;5074474;28;20099;-72
2022/05/07 04:03:16;;;;;;;36.00;23.73;;;;;;;11.11;89.91;102187.97;5074514;28;20102;-72
2022/05/07 04:05:41;;;;;;;44.33;26.02;;;;;;;11.12;89.70;102188.84;5073278;28;20170;-72
2022/05/07 04:08:07;;;;;;;40.42;24.70;;;;;;;11.15;89.34;102196.63;5074218;28;20029;-72
2022/05/07 04:10:32;;;;;;;36.38;23.73;;;;;;;11.13;89.54;102203.63;5074311;28;20033;-72
2022/05/07 04:12:57;;;;;;;36.75;23.30;;;;;;;11.15;89.80;102202.75;5073592;28;20029;-72
2022/05/07 04:15:23;;;;;;;34.33;23.95;;;;;;;11.11;89.94;102195.78;5074338;28;20028;-72
2022/05/07 04:17:49;;;;;;;35.20;24.00;;;;;;;11.08;90.43;102208.84;5074138;28;20422;-72
2022/05/07 04:20:15;;;;;;;35.08;24.33;;;;;;;11.04;90.64;102201.06;5073714;28;20422;-72
2022/05/07 04:22:40;;;;;;;43.95;26.30;;;;;;;11.02;90.01;102207.16;5073792;28;20024;-73
2022/05/07 04:25:08;;;;;;;37.95;24.13;;;;;;;10.98;89.66;102200.19;5074213;28;20037;-72
2022/05/07 04:27:34;;;;;;;39.50;24.85;;;;;;;11.02;89.52;102201.06;5072654;28;20115;-73
2022/05/07 04:29:59;;;;;;;35.25;24.92;;;;;;;11.00;89.77;102202.81;5073997;28;20143;-72
2022/05/07 04:32:26;;;;;;;32.03;24.17;;;;;;;11.03;89.62;102210.63;5073562;28;20019;-72
2022/05/07 04:34:51;;;;;;;34.53;24.42;;;;;;;11.09;89.29;102201.91;5073685;28;20024;-72
2022/05/07 04:37:16;;;;;;;39.15;24.98;;;;;;;11.15;89.09;102201.88;5073663;28;20090;-72
2022/05/07 04:39:42;;;;;;;37.80;24.55;;;;;;;11.20;88.67;102200.97;5072589;28;20138;-72
2022/05/07 04:42:07;;;;;;;36.30;25.20;;;;;;;11.24;88.19;102196.59;5073790;28;20048;-73
2022/05/07 04:44:33;;;;;;;37.03;24.38;;;;;;;11.29;88.67;102205.31;5073294;28;20025;-72
2022/05/07 04:46:58;;;;;;;34.55;24.25;;;;;;;11.36;87.95;102206.13;5072882;28;20039;-73
2022/05/07 04:49:24;;;;;;;38.28;23.92;;;;;;;11.36;88.24;102211.34;5073635;28;20139;-72
2022/05/07 04:51:50;;;;;;;29.77;22.65;;;;;;;11.40;88.52;102215.69;5073179;28;20617;-72
2022/05/07 04:54:20;;;;;;;35.10;24.23;;;;;;;11.47;88.40;102226.06;5072250;28;20369;-72
2022/05/07 04:56:49;;;;;;;37.47;25.63;;;;;;;11.48;88.69;102219.13;5072945;28;20040;-72
2022/05/07 04:59:15;;;;;;;35.58;24.13;;;;;;;11.51;88.50;102213.91;5073163;28;20396;-72
2022/05/07 05:01:41;;;;;;;35.17;23.75;;;;;;;11.58;87.80;102212.13;5072439;28;20123;-72
2022/05/07 05:04:07;;;;;;;36.83;25.33;;;;;;;11.60;87.69;102213.81;5073255;28;20107;-72
2022/05/07 05:06:32;;;;;;;39.33;25.30;;;;;;;11.66;87.79;102218.16;5072796;28;20028;-72
2022/05/07 05:08:57;;;;;;;32.90;23.50;;;;;;;11.71;87.60;102224.22;5072649;28;20462;-72
2022/05/07 05:11:22;;;;;;;35.03;25.25;;;;;;;11.73;88.25;102232.91;5073321;28;20532;-72
2022/05/07 05:13:48;;;;;;;34.75;25.50;;;;;;;11.70;88.21;102232.94;5072918;28;20484;-72
2022/05/07 05:16:13;;;;;;;36.97;24.52;;;;;;;11.73;88.43;102243.34;5072798;28;20074;-73
2022/05/07 05:18:39;;;;;;;36.53;25.42;;;;;;;11.75;88.72;102239.00;5072742;28;20033;-72
2022/05/07 05:21:04;;;;;;;42.70;28.60;;;;;;;11.73;88.09;102228.53;5073107;28;20021;-73
2022/05/07 05:23:30;;;;;;;36.33;25.42;;;;;;;11.85;87.64;102245.06;5072449;28;20081;-72
2022/05/07 05:25:55;;;;;;;38.78;27.25;;;;;;;11.88;87.53;102247.66;5073110;28;20051;-72
2022/05/07 05:28:21;;;;;;;41.50;30.75;;;;;;;11.92;87.18;102254.59;5072888;28;20115;-72
2022/05/07 05:30:51;;;;;;;49.00;31.73;;;;;;;11.90;86.78;102253.72;5071885;28;20028;-73
2022/05/07 05:33:19;;;;;;;45.05;31.58;;;;;;;11.89;87.21;102257.22;5073009;28;20025;-73
2022/05/07 05:35:45;;;;;;;40.58;31.58;;;;;;;11.88;87.24;102258.97;5071759;28;20085;-73
2022/05/07 05:38:10;;;;;;;45.13;33.88;;;;;;;11.88;86.60;102263.34;5073076;28;20472;-72
2022/05/07 05:40:35;;;;;;;45.00;33.58;;;;;;;11.93;86.71;102264.16;5072737;28;20026;-72
2022/05/07 05:43:01;;;;;;;46.05;35.38;;;;;;;11.94;86.39;102256.34;5072109;28;20028;-72
2022/05/07 05:45:27;;;;;;;48.75;34.47;;;;;;;12.01;87.22;102256.28;5072883;28;20032;-72
2022/05/07 05:47:53;;;;;;;46.47;33.97;;;;;;;12.11;86.79;102260.56;5072458;28;20127;-72
2022/05/07 05:50:18;;;;;;;47.85;34.20;;;;;;;12.22;87.21;102256.13;5071902;28;20107;-72
2022/05/07 05:52:43;;;;;;;49.42;36.22;;;;;;;12.33;85.38;102253.44;5072687;28;20024;-73
2022/05/07 05:55:09;;;;;;;42.97;34.85;;;;;;;12.34;85.49;102248.19;5072829;28;20116;-73
2022/05/07 05:57:34;;;;;;;49.40;36.10;;;;;;;12.54;84.91;102255.00;5071315;28;20041;-72
2022/05/07 05:59:59;;;;;;;49.08;35.45;;;;;;;12.64;84.77;102270.59;5072705;28;20028;-72
2022/05/07 06:02:24;;;;;;;44.55;35.33;;;;;;;12.77;83.83;102257.38;5072669;28;20472;-72
2022/05/07 06:04:50;;;;;;;51.80;34.60;;;;;;;12.93;81.86;102258.09;5073070;28;20171;-72
2022/05/07 06:07:15;;;;;;;46.28;34.72;;;;;;;13.02;81.94;102258.00;5076856;28;20477;-72
2022/05/07 06:09:40;;;;;;;42.08;32.90;;;;;;;13.09;81.19;102259.66;5076582;28;20025;-72
2022/05/07 06:12:06;;;;;;;38.63;30.52;;;;;;;13.22;80.22;102266.50;5075703;28;20056;-73
2022/05/07 06:14:31;;;;;;;43.88;32.00;;;;;;;13.33;80.06;102262.00;5076297;28;20037;-73
2022/05/07 06:16:56;;;;;;;39.80;30.42;;;;;;;13.45;80.49;102270.63;5076480;28;20086;-73
2022/05/07 06:19:22;;;;;;;45.72;30.65;;;;;;;13.59;78.54;102266.91;5075577;28;20027;-73
2022/05/07 06:21:47;;;;;;;36.90;28.35;;;;;;;13.67;78.27;102264.22;5076307;28;20431;-73
2022/05/07 06:29:40;;;;;;;34.85;26.77;;;;;;;14.08;79.13;102274.97;5076413;28;19919;-73
2022/05/07 06:32:05;;;;;;;33.83;24.13;;;;;;;14.15;75.03;102271.38;5075254;28;20028;-72
2022/05/07 06:34:30;;;;;;;37.15;23.98;;;;;;;14.13;76.28;102263.53;5075986;28;20035;-72
2022/05/07 06:36:57;;;;;;;33.95;23.10;;;;;;;14.21;75.07;102271.28;5076103;28;20025;-73
2022/05/07 06:39:23;;;;;;;31.40;22.15;;;;;;;14.25;75.46;102265.94;5075477;28;20028;-72
2022/05/07 06:41:51;;;;;;;31.55;23.45;;;;;;;14.23;76.28;102257.25;5075944;28;20029;-73
2022/05/07 06:44:17;;;;;;;35.00;22.23;;;;;;;14.34;75.14;102259.69;5075869;28;20107;-73
2022/05/07 06:46:42;;;;;;;31.02;22.88;;;;;;;14.39;74.12;102267.50;5074844;28;20158;-73
2022/05/07 06:49:07;;;;;;;38.78;23.33;;;;;;;14.43;73.93;102269.19;5075973;28;20149;-73
2022/05/07 06:51:34;;;;;;;31.27;22.27;;;;;;;14.40;74.85;102264.84;5075379;28;20052;-73
2022/05/07 06:53:59;;;;;;;33.17;23.08;;;;;;;14.49;72.43;102264.69;5075046;28;20032;-73
2022/05/07 06:56:24;;;;;;;33.28;22.52;;;;;;;14.52;72.76;102266.44;5075659;28;20052;-73
2022/05/07 06:58:50;;;;;;;31.75;23.45;;;;;;;14.60;74.61;102266.28;5075367;28;20036;-73
2022/05/07 07:01:15;;;;;;;34.22;22.30;;;;;;;14.62;72.55;102270.63;5075047;28;20052;-73
2022/05/07 07:03:40;;;;;;;32.92;22.27;;;;;;;14.66;71.87;102267.06;5075212;28;20039;-72
2022/05/07 07:06:06;;;;;;;29.88;21.58;;;;;;;14.71;73.62;102270.47;5075704;28;20047;-73
2022/05/07 07:08:31;;;;;;;34.33;22.13;;;;;;;14.80;70.45;102277.28;5074605;28;20016;-73
2022/05/07 07:10:57;;;;;;;32.97;22.42;;;;;;;14.87;71.66;102276.28;5075531;28;20438;-73
2022/05/07 07:13:22;;;;;;;33.13;21.67;;;;;;;14.95;70.70;102268.28;5075356;28;20032;-73
2022/05/07 07:15:48;;;;;;;36.95;22.65;;;;;;;14.97;71.79;102267.34;5074147;28;20017;-73
2022/05/07 07:18:13;;;;;;;32.20;21.25;;;;;;;15.06;71.21;102268.06;5075328;28;20025;-73
2022/05/07 07:20:41;;;;;;;31.42;21.23;;;;;;;15.11;70.76;102274.09;5075197;28;20017;-73
2022/05/07 07:23:07;;;;;;;27.65;19.98;;;;;;;15.14;70.26;102267.03;5074524;28;20466;-73
2022/05/07 07:25:33;;;;;;;30.58;21.13;;;;;;;15.24;71.57;102267.72;5075066;28;20024;-73
2022/05/07 07:27:58;;;;;;;27.73;20.27;;;;;;;15.29;69.62;102264.97;5075167;28;20021;-73
2022/05/07 07:30:23;;;;;;;29.23;21.02;;;;;;;15.35;69.93;102270.97;5074241;28;20028;-73
2022/05/07 07:32:49;;;;;;;30.88;20.98;;;;;;;15.43;68.98;102273.44;5075003;28;20028;-73
2022/05/07 07:35:14;;;;;;;32.92;21.15;;;;;;;15.50;67.58;102268.91;5075172;28;20024;-73
2022/05/07 07:37:39;;;;;;;28.80;20.08;;;;;;;15.53;69.33;102271.47;5074305;28;20395;-73
2022/05/07 07:40:05;;;;;;;28.98;21.42;;;;;;;15.58;68.76;102262.59;5074881;28;20032;-73
2022/05/07 07:42:30;;;;;;;29.50;20.42;;;;;;;15.65;69.47;102252.81;5073873;28;20056;-73
2022/05/07 07:50:24;;;;;;;;;;;;;;;15.94;68.81;102273.22;5074526;28;20047;-73
2022/05/07 07:52:53;;;;;;;34.00;20.90;;;;;;;16.00;66.54;102272.22;5074327;28;20372;-73
2022/05/07 07:55:20;;;;;;;30.50;20.67;;;;;;;16.09;66.95;102270.25;5074590;28;20036;-72
2022/05/07 07:57:45;;;;;;;31.23;21.27;;;;;;;16.22;65.32;102259.41;5073425;28;20131;-72
2022/05/07 08:00:11;;;;;;;32.10;20.58;;;;;;;16.37;67.44;102272.19;5074668;28;20071;-73
2022/05/07 08:02:46;;;;;;;29.52;20.55;;;;;;;16.46;65.13;102271.09;5074313;28;20457;-73
2022/05/07 08:05:12;;;;;;;32.15;19.90;;;;;;;16.61;64.63;102270.69;5073658;28;20031;-73
2022/05/07 08:13:05;;;;;;;32.65;19.80;;;;;;;17.01;64.68;102262.63;5074648;28;20494;-73
2022/05/07 08:15:30;;;;;;;27.98;18.75;;;;;;;17.18;60.69;102270.06;5074154;28;20028;-73
2022/05/07 08:17:55;;;;;;;33.67;19.75;;;;;;;17.30;61.43;102260.94;5073507;28;20388;-72
2022/05/07 08:20:20;;;;;;;25.73;18.73;;;;;;;17.41;60.18;102268.53;5074067;28;20083;-72
2022/05/07 08:22:46;;;;;;;30.55;20.08;;;;;;;17.49;61.39;102261.25;5073728;28;20033;-73
2022/05/07 08:25:11;;;;;;;31.80;21.65;;;;;;;17.41;61.56;102266.75;5073453;28;20029;-73
2022/05/07 08:27:37;;;;;;;31.80;22.50;;;;;;;17.30;61.05;102267.09;5072871;28;20029;-73
2022/05/07 08:30:04;;;;;;;30.25;22.27;;;;;;;17.23;59.63;102268.19;5073694;28;20021;-73
2022/05/07 08:32:29;;;;;;;32.80;21.25;;;;;;;17.22;61.71;102278.75;5073220;28;20020;-73
2022/05/07 08:34:54;;;;;;;33.38;21.33;;;;;;;17.22;61.66;102269.06;5073630;28;20028;-73
2022/05/07 08:37:19;;;;;;;32.00;20.70;;;;;;;17.20;60.42;102273.53;5074032;28;20028;-73
2022/05/07 08:39:45;;;;;;;29.20;19.60;;;;;;;17.25;63.74;102278.66;5072590;28;20036;-73
2022/05/07 08:42:11;;;;;;;31.55;19.98;;;;;;;17.27;62.29;102280.34;5073874;28;20031;-73
2022/05/07 08:44:36;;;;;;;30.05;19.77;;;;;;;17.30;60.33;102276.78;5073502;28;20028;-73
2022/05/07 08:47:01;;;;;;;30.40;19.80;;;;;;;17.42;59.83;102276.38;5072726;28;20082;-73
2022/05/07 08:49:29;;;;;;;31.67;20.33;;;;;;;17.62;60.70;102264.38;5073473;28;20034;-73
2022/05/07 08:51:55;;;;;;;28.02;20.00;;;;;;;17.86;59.01;102273.38;5073338;28;20103;-73
2022/05/07 08:54:20;;;;;;;32.45;20.83;;;;;;;17.90;56.91;102265.31;5072713;28;20025;-73
2022/05/07 08:56:46;;;;;;;27.38;19.45;;;;;;;17.99;58.83;102275.56;5073045;28;20098;-73
2022/05/07 08:59:11;;;;;;;29.52;19.50;;;;;;;18.04;58.92;102262.22;5073386;28;20029;-73
2022/05/07 09:01:36;;;;;;;27.50;19.27;;;;;;;18.27;57.16;102269.38;5072226;28;20024;-73
2022/05/07 09:04:20;;;;;;;27.88;19.05;;;;;;;18.56;58.64;102264.91;5073302;28;20028;-73
2022/05/07 09:06:54;;;;;;;29.80;20.35;;;;;;;18.91;56.82;102261.94;5072201;28;20506;-73
2022/05/07 09:09:19;;;;;;;30.23;20.10;;;;;;;19.01;54.47;102261.59;5073229;28;20031;-73
2022/05/07 09:11:45;;;;;;;30.42;21.02;;;;;;;18.99;53.61;102266.06;5072922;28;20021;-73
2022/05/07 09:14:11;;;;;;;32.35;19.98;;;;;;;18.92;54.97;102262.78;5072378;28;20036;-73
2022/05/07 09:16:41;;;;;;;29.85;20.10;;;;;;;19.00;55.58;102266.03;5072765;28;20027;-73
2022/05/07 09:19:18;;;;;;;30.85;20.15;;;;;;;19.11;54.96;102266.47;5073079;28;20577;-73
2022/05/07 09:21:44;;;;;;;29.55;18.67;;;;;;;19.22;54.14;102252.88;5072074;28;20126;-72
2022/05/07 09:24:09;;;;;;;31.08;19.45;;;;;;;19.35;53.23;102256.78;5073148;28;20043;-73
2022/05/07 09:26:39;;;;;;;28.77;19.05;;;;;;;19.79;54.99;102254.22;5072674;28;20025;-73
2022/05/07 09:29:08;;;;;;;33.40;20.70;;;;;;;20.21;52.01;102253.41;5072100;28;20024;-73
2022/05/07 09:31:34;;;;;;;31.00;19.70;;;;;;;20.52;49.58;102255.66;5072773;28;20020;-73
2022/05/07 09:37:20;;;;;;;30.77;21.27;;;;;;;20.56;50.27;102245.78;5072406;28;20044;-73
2022/05/07 09:39:50;;;;;;;30.00;19.98;;;;;;;20.44;50.29;102262.19;5072272;28;20411;-73
2022/05/07 09:42:20;;;;;;;32.65;20.08;;;;;;;20.42;52.38;102250.78;5072040;28;20024;-73
2022/05/07 09:44:46;;;;;;;27.33;19.55;;;;;;;20.45;51.02;102258.59;5072527;28;20240;-73
2022/05/07 09:47:12;;;;;;;30.88;21.08;;;;;;;20.44;49.00;102260.41;5072775;28;20147;-73
2022/05/07 09:50:20;;;;;;;30.20;20.52;;;;;;;20.37;49.63;102256.25;5071800;28;20464;-73
2022/05/07 09:52:29;;;;;;;30.10;20.58;;;;;;;20.42;51.61;102258.72;5072631;28;20518;-73
2022/05/07 09:57:39;;;;;;;29.92;20.92;;;;;;;20.62;51.00;102256.13;5071476;28;20064;-73
2022/05/07 10:00:16;;;;;;;30.35;21.60;;;;;;;20.71;49.24;102263.66;5072614;28;20017;-73
2022/05/07 10:03:05;;;;;;;32.90;21.83;;;;;;;20.79;49.50;102256.22;5072173;28;20375;-73
2022/05/07 10:05:54;;;;;;;29.55;20.90;;;;;;;21.00;49.56;102245.63;5072457;28;20028;-73
2022/05/07 10:08:45;;;;;;;32.28;21.10;;;;;;;21.21;48.23;102257.03;5072736;28;20384;-74
2022/05/07 10:11:13;;;;;;;32.13;21.80;;;;;;;21.29;48.31;102249.59;5071929;28;20082;-73
2022/05/07 10:13:38;;;;;;;28.95;19.73;;;;;;;21.26;47.05;102253.25;5072381;28;20108;-74
2022/05/07 10:16:04;;;;;;;29.70;21.70;;;;;;;21.28;46.21;102254.03;5072558;28;20044;-73
2022/05/07 10:18:41;;;;;;;32.25;21.63;;;;;;;21.36;48.04;102245.75;5071666;28;20099;-74
2022/05/07 10:21:14;;;;;;;33.38;21.95;;;;;;;21.44;46.12;102256.84;5072420;28;20025;-73
2022/05/07 10:23:50;;;;;;;;;;;;;;;21.54;48.80;102246.69;5072694;28;20036;-74
2022/05/07 10:26:16;;;;;;;27.27;16.67;;;;;;;21.37;44.42;102249.28;5071600;28;19913;-73
2022/05/07 10:28:42;;;;;;;23.52;17.00;;;;;;;21.50;44.08;102245.97;5072059;28;20031;-73
2022/05/07 10:31:16;;;;;;;23.00;15.18;;;;;;;21.69;46.15;102235.34;5071507;28;20473;-73
2022/05/07 10:33:41;;;;;;;19.33;12.40;;;;;;;21.74;39.29;102241.28;5071876;28;20036;-73
2022/05/07 10:36:09;;;;;;;14.02;8.90;;;;;;;21.89;36.96;102242.31;5072427;28;20024;-74
2022/05/07 10:38:39;;;;;;;14.30;9.68;;;;;;;22.19;36.65;102226.69;5071153;28;20048;-74
2022/05/07 10:41:05;;;;;;;14.95;10.82;;;;;;;22.64;39.34;102235.06;5072498;28;20020;-74
2022/05/07 10:43:33;;;;;;;16.95;11.48;;;;;;;22.80;38.47;102238.63;5071914;28;20465;-74
2022/05/07 10:46:09;;;;;;;18.45;11.50;;;;;;;22.72;41.37;102238.16;5071291;28;20032;-73
2022/05/07 10:48:47;;;;;;;20.08;12.23;;;;;;;22.54;40.79;102229.34;5071983;28;20059;-74
2022/05/07 10:51:28;;;;;;;16.85;11.52;;;;;;;22.83;42.14;102229.63;5072689;28;20480;-74
2022/05/07 10:53:57;;;;;;;21.48;14.93;;;;;;;22.60;39.11;102218.41;5074665;28;20031;-73
2022/05/07 10:56:23;;;;;;;22.48;13.60;;;;;;;22.97;37.89;102218.28;5075514;28;20048;-74
2022/05/07 10:58:54;;;;;;;18.70;11.57;;;;;;;23.07;39.75;102220.34;5075638;28;20017;-73
2022/05/07 11:01:21;;;;;;;20.88;12.82;;;;;;;23.17;38.24;102230.50;5075003;28;20025;-74
2022/05/07 11:03:47;;;;;;;20.60;11.82;;;;;;;22.90;40.11;102221.22;5075488;28;20055;-74
2022/05/07 11:06:13;;;;;;;21.95;12.25;;;;;;;22.54;40.31;102225.84;5075580;28;20101;-74
2022/05/07 11:08:46;;;;;;;17.27;11.05;;;;;;;22.37;41.56;102226.72;5074460;28;20468;-73
2022/05/07 11:11:11;;;;;;;17.48;12.85;;;;;;;22.27;40.21;102221.00;5075820;28;20423;-73
2022/05/07 11:13:44;;;;;;;19.33;11.90;;;;;;;22.36;41.72;102223.19;5074342;28;20346;-74
2022/05/07 11:16:10;;;;;;;18.13;10.48;;;;;;;22.62;42.92;102213.84;5075546;28;20029;-74
2022/05/07 11:18:35;;;;;;;16.73;11.73;;;;;;;22.70;41.03;102215.28;5075131;28;20028;-74
2022/05/07 11:21:03;;;;;;;20.73;11.38;;;;;;;22.37;41.64;102222.25;5074560;28;20025;-74
2022/05/07 11:23:28;;;;;;;16.70;10.80;;;;;;;22.06;43.24;102222.06;5075162;28;20020;-74
2022/05/07 11:25:54;;;;;;;20.40;10.20;;;;;;;21.83;45.52;102221.38;5075041;28;20607;-74
2022/05/07 11:28:19;;;;;;;22.88;10.52;;;;;;;21.79;44.87;102225.13;5074335;28;20028;-74
2022/05/07 11:30:52;;;;;;;18.85;11.68;;;;;;;22.04;43.64;102214.19;5075006;28;20024;-74
2022/05/07 11:33:24;;;;;;;19.60;11.13;;;;;;;22.49;43.60;102218.09;5075225;28;20064;-73
2022/05/07 11:36:03;;;;;;;18.48;10.35;;;;;;;22.67;43.17;102211.81;5073879;28;20396;-74
2022/05/07 11:38:28;;;;;;;16.20;9.95;;;;;;;22.56;43.26;102213.31;5074913;28;20067;-73